Terminal Aerodrome Forecast
Issued by NWS

Home | Current Version | Previous Version | Text Only | Print | Product List | Glossary On
Versions: 1 2 3 4 5 6 7 8 9 10 11 12 13 14
000
FTUS45 KTFX 231720
TAFCTB
TAF
KCTB 231720Z 2318/2418 03008KT P6SM FEW050 SCT200
      TEMPO 2318/2322 BKN050 BKN060=

USA.gov is the U.S. government's official web portal to all federal, state and local government web resources and services.